Time;durP1;ratioP1;P1;durP2;ratioP2;P2;SDS_P1;SDS_P2;PMS_P1;PMS_P2;Temp;Humidity;BMP_temperature;BMP_pressure;BME280_temperature;BME280_humidity;BME280_pressure;Samples;Min_cycle;Max_cycle;Signal;HPM_P1;HPM_P2
2022/11/15 00:08:16;;;;;;;33.20;19.33;;;;;;;7.57;100.00;100072.78;20905137;28;20049;-69
2022/11/15 00:18:18;;;;;;;29.80;19.90;;;;;;;7.60;100.00;100084.91;20907049;28;20045;-69
2022/11/15 00:28:19;;;;;;;28.35;17.55;;;;;;;7.65;100.00;100086.59;20905331;28;20053;-71
2022/11/15 00:38:20;;;;;;;28.90;18.65;;;;;;;7.61;100.00;100078.81;20911992;28;20045;-71
2022/11/15 00:48:22;;;;;;;27.08;16.85;;;;;;;7.52;100.00;100068.47;20985375;28;20574;-70
2022/11/15 00:58:23;;;;;;;28.90;19.38;;;;;;;7.63;100.00;100058.84;20984432;28;20045;-71
2022/11/15 01:08:24;;;;;;;23.60;15.73;;;;;;;7.74;100.00;100049.16;20982945;28;20048;-71
2022/11/15 01:18:26;;;;;;;25.40;17.33;;;;;;;7.73;100.00;100034.41;20982064;28;20143;-70
2022/11/15 01:28:27;;;;;;;27.10;17.00;;;;;;;7.76;100.00;100039.59;20983060;28;20543;-72
2022/11/15 01:38:28;;;;;;;25.52;15.82;;;;;;;7.82;100.00;100031.72;20974819;28;20049;-71
2022/11/15 01:48:29;;;;;;;28.88;17.42;;;;;;;7.90;100.00;100027.25;20899448;28;20490;-71
2022/11/15 01:58:32;;;;;;;29.02;19.98;;;;;;;7.99;100.00;100010.66;20898513;28;20044;-71
2022/11/15 02:08:33;;;;;;;28.30;18.35;;;;;;;8.06;100.00;100001.03;20898904;28;20052;-70
2022/11/15 02:18:35;;;;;;;25.10;17.05;;;;;;;8.03;100.00;99988.03;20899362;28;20146;-71
2022/11/15 02:28:36;;;;;;;30.33;16.80;;;;;;;7.92;100.00;99970.78;20900757;28;20138;-70
2022/11/15 02:38:37;;;;;;;24.92;15.95;;;;;;;7.81;100.00;99970.06;20922919;28;20078;-71
2022/11/15 02:48:38;;;;;;;27.13;16.23;;;;;;;7.72;100.00;99957.13;20994752;28;20048;-72
2022/11/15 02:58:40;;;;;;;25.08;15.90;;;;;;;7.78;100.00;99950.97;20994730;28;20577;-71
2022/11/15 03:08:41;;;;;;;22.58;16.05;;;;;;;7.83;100.00;99936.13;20994194;28;20075;-71
2022/11/15 03:18:42;;;;;;;23.58;14.80;;;;;;;7.94;100.00;99939.47;20992961;28;20055;-71
2022/11/15 03:28:44;;;;;;;23.15;14.50;;;;;;;8.04;100.00;99935.00;20991757;28;20061;-71
2022/11/15 03:38:45;;;;;;;23.13;14.07;;;;;;;8.16;100.00;99927.03;20980803;28;20063;-71
2022/11/15 03:48:46;;;;;;;20.95;13.02;;;;;;;8.16;100.00;99933.09;20907151;28;20049;-70
2022/11/15 03:58:47;;;;;;;22.70;13.23;;;;;;;8.13;100.00;99929.66;20907166;28;20398;-71
2022/11/15 04:08:49;;;;;;;22.13;14.05;;;;;;;8.22;100.00;99930.41;20888681;28;20114;-71
2022/11/15 04:24:11;;;;;;;39.63;23.27;;;;;;;8.28;100.00;99931.19;20905744;28;20472;-71
2022/11/15 04:39:31;;;;;;;26.35;16.65;;;;;;;8.32;100.00;99915.50;20921447;28;20512;-71
2022/11/15 04:49:32;;;;;;;30.88;18.17;;;;;;;8.41;100.00;99904.97;20985791;28;20052;-71
2022/11/15 04:59:33;;;;;;;24.23;15.20;;;;;;;8.42;100.00;99901.47;20985728;28;20056;-71
2022/11/15 05:09:35;;;;;;;20.38;13.48;;;;;;;8.46;100.00;99891.84;20983950;28;20110;-71
2022/11/15 05:19:36;;;;;;;24.40;15.00;;;;;;;8.51;100.00;99897.00;20984430;28;20082;-71
2022/11/15 05:29:38;;;;;;;19.75;12.25;;;;;;;8.44;100.00;99886.66;20984064;28;20496;-71
2022/11/15 05:39:39;;;;;;;20.63;12.40;;;;;;;8.39;100.00;99882.41;20961817;28;20064;-71
2022/11/15 05:49:40;;;;;;;22.23;12.45;;;;;;;8.39;100.00;99887.63;20958304;28;20542;-71
2022/11/15 05:59:43;;;;;;;18.60;12.40;;;;;;;8.33;100.00;99885.03;20980500;28;20060;-71
2022/11/15 06:09:44;;;;;;;18.23;12.35;;;;;;;8.22;100.00;99890.44;20992331;28;20116;-71
2022/11/15 06:19:45;;;;;;;22.08;13.98;;;;;;;8.17;100.00;99884.41;20995743;28;20546;-71
2022/11/15 06:29:47;;;;;;;25.75;16.85;;;;;;;8.16;100.00;99870.53;20994940;28;20048;-71
2022/11/15 06:39:48;;;;;;;22.45;14.48;;;;;;;8.17;100.00;99866.16;20974759;28;20057;-70
2022/11/15 06:49:49;;;;;;;25.92;16.10;;;;;;;8.18;100.00;99862.66;21022768;28;20055;-70
2022/11/15 06:59:51;;;;;;;25.52;16.98;;;;;;;8.26;100.00;99868.63;20993827;28;20110;-71
2022/11/15 07:09:52;;;;;;;25.27;16.70;;;;;;;8.37;100.00;99873.72;20994111;28;20053;-71
2022/11/15 07:19:53;;;;;;;30.08;18.92;;;;;;;8.41;100.00;99881.47;20993251;28;20258;-72
2022/11/15 07:29:54;;;;;;;30.70;20.85;;;;;;;8.54;100.00;99882.16;21006380;28;20056;-72
2022/11/15 07:39:56;;;;;;;30.08;21.35;;;;;;;8.53;100.00;99875.22;21056835;28;20126;-72
2022/11/15 07:49:57;;;;;;;28.08;19.13;;;;;;;8.62;100.00;99890.72;20992060;28;20048;-72
2022/11/15 07:59:58;;;;;;;21.60;14.80;;;;;;;8.80;100.00;99897.38;20991399;28;20467;-72
2022/11/15 08:10:01;;;;;;;21.17;13.68;;;;;;;8.94;100.00;99877.13;20966117;28;20052;-73
2022/11/15 08:20:03;;;;;;;20.55;13.43;;;;;;;9.09;100.00;99872.53;20919214;28;20612;-72
2022/11/15 08:30:04;;;;;;;22.40;14.70;;;;;;;9.24;100.00;99859.16;20930934;28;20060;-73
2022/11/15 08:40:05;;;;;;;17.00;12.10;;;;;;;9.43;100.00;99865.75;20937501;28;20066;-74
2022/11/15 08:50:06;;;;;;;21.50;13.93;;;;;;;9.59;100.00;99865.50;20959631;28;20878;-72
2022/11/15 09:00:08;;;;;;;42.38;22.83;;;;;;;9.64;100.00;99867.09;20942719;28;20481;-74
2022/11/15 09:10:09;;;;;;;40.45;25.42;;;;;;;9.86;100.00;99854.44;20956213;28;20110;-75
2022/11/15 09:20:10;;;;;;;21.95;14.52;;;;;;;10.07;100.00;99853.13;20986328;28;20080;-75
2022/11/15 09:30:11;;;;;;;25.02;15.35;;;;;;;10.26;100.00;99843.13;21001858;28;20047;-75
2022/11/15 09:40:15;;;;;;;21.55;13.75;;;;;;;10.53;100.00;99844.19;21045691;28;20147;-74
2022/11/15 09:50:16;;;;;;;27.23;18.00;;;;;;;10.76;100.00;99833.16;20984481;28;20053;-74
2022/11/15 10:00:18;;;;;;;22.08;11.75;;;;;;;10.63;100.00;99839.59;20975562;28;20048;-71
2022/11/15 10:10:39;;;;;;;20.45;12.13;;;;;;;10.67;100.00;99842.09;20902726;28;20053;-72
2022/11/15 10:20:40;;;;;;;23.88;12.93;;;;;;;10.78;100.00;99826.16;20897644;28;20051;-72
2022/11/15 10:30:41;;;;;;;16.45;10.32;;;;;;;10.90;100.00;99815.34;20897936;28;20040;-72
2022/11/15 10:40:44;;;;;;;21.65;11.82;;;;;;;11.03;100.00;99801.03;20924738;28;20048;-72
2022/11/15 10:50:45;;;;;;;33.03;19.55;;;;;;;11.38;100.00;99785.22;20983517;28;20052;-72
2022/11/15 11:00:47;;;;;;;16.05;9.20;;;;;;;11.56;100.00;99754.06;20993784;28;20157;-72
2022/11/15 11:10:48;;;;;;;13.73;8.13;;;;;;;11.90;100.00;99736.47;20994847;28;20083;-72
2022/11/15 11:20:53;;;;;;;;;;;;;;;11.96;100.00;99721.38;20994681;28;20083;-72
2022/11/15 11:30:54;;;;;;;9.52;6.43;;;;;;;12.25;100.00;99690.69;20992745;28;19978;-74
2022/11/15 11:40:56;;;;;;;10.38;5.78;;;;;;;12.62;100.00;99689.44;20963468;28;20057;-72
2022/11/15 11:50:57;;;;;;;15.15;5.80;;;;;;;12.81;100.00;99679.97;20906914;28;20398;-72
2022/11/15 12:00:58;;;;;;;8.38;4.82;;;;;;;12.78;100.00;99659.91;20905951;28;20452;-72
2022/11/15 12:11:00;;;;;;;166.50;105.25;;;;;;;12.84;100.00;99648.34;20906997;28;20053;-71
2022/11/15 12:21:01;;;;;;;8.30;4.32;;;;;;;12.81;100.00;99635.31;20942129;28;20435;-71
2022/11/15 12:31:02;;;;;;;10.98;5.57;;;;;;;12.84;100.00;99617.69;20986692;28;20071;-71
2022/11/15 12:41:03;;;;;;;9.27;4.10;;;;;;;12.97;100.00;99617.19;20986817;28;20048;-72
2022/11/15 12:51:05;;;;;;;9.70;5.40;;;;;;;13.17;100.00;99584.88;20985303;28;20060;-71
2022/11/15 13:01:06;;;;;;;14.57;6.50;;;;;;;13.01;100.00;99564.47;20986086;28;20475;-71
2022/11/15 13:11:07;;;;;;;7.05;4.05;;;;;;;12.93;100.00;99563.91;20984192;28;20114;-71
2022/11/15 13:22:50;;;;;;;8.55;4.28;;;;;;;12.94;100.00;99549.88;20983300;28;20471;-71
2022/11/15 13:31:30;;;;;;;10.23;4.50;;;;;;;12.90;100.00;99531.66;20982063;28;20044;-70
2022/11/15 13:41:31;;;;;;;8.43;4.75;;;;;;;12.85;100.00;99516.06;20948902;28;20053;-71
2022/11/15 13:51:33;;;;;;;12.88;5.95;;;;;;;12.72;100.00;99499.91;20898087;28;20072;-71
2022/11/15 14:01:34;;;;;;;7.43;4.97;;;;;;;12.58;100.00;99479.44;20898332;28;20254;-71
2022/11/15 14:11:35;;;;;;;12.25;5.72;;;;;;;12.58;100.00;99452.34;20897870;28;20140;-70
2022/11/15 14:21:37;;;;;;;9.27;3.85;;;;;;;12.52;100.00;99447.31;20898693;28;20064;-70
2022/11/15 14:31:40;;;;;;;10.30;5.82;;;;;;;12.46;100.00;99434.44;20912470;28;20436;-70
2022/11/15 14:41:44;;;;;;;14.02;6.20;;;;;;;12.36;100.00;99420.81;20949220;28;20131;-70
2022/11/15 14:51:45;;;;;;;9.20;5.13;;;;;;;12.29;100.00;99408.84;20995327;28;20087;-70
2022/11/15 15:01:46;;;;;;;17.02;10.02;;;;;;;12.23;100.00;99395.94;20993836;28;20393;-70
2022/11/15 15:11:48;;;;;;;28.48;15.23;;;;;;;12.13;100.00;99379.72;20993668;28;20477;-73
2022/11/15 15:21:49;;;;;;;11.65;5.95;;;;;;;12.09;100.00;99364.13;20976144;28;20052;-73
2022/11/15 15:31:50;;;;;;;10.23;5.60;;;;;;;11.94;100.00;99355.94;20909704;28;20041;-73
2022/11/15 15:41:51;;;;;;;10.02;5.60;;;;;;;11.71;100.00;99340.19;20943846;28;20052;-73
2022/11/15 15:51:57;;;;;;;29.73;22.85;;;;;;;11.64;100.00;99330.81;20988568;28;20155;-74
2022/11/15 16:01:58;;;;;;;12.38;6.75;;;;;;;11.54;100.00;99325.91;20988559;28;20048;-73
2022/11/15 16:12:00;;;;;;;41.20;22.00;;;;;;;11.36;100.00;99297.78;20988610;28;20499;-73
2022/11/15 16:22:01;;;;;;;13.77;8.57;;;;;;;11.33;100.00;99289.16;20985761;28;20117;-73
2022/11/15 16:32:03;;;;;;;11.82;6.90;;;;;;;11.27;100.00;99274.53;21002451;28;20101;-73
2022/11/15 16:42:04;;;;;;;11.20;5.95;;;;;;;11.15;100.00;99261.84;21032507;28;20090;-73
2022/11/15 16:52:05;;;;;;;14.35;7.72;;;;;;;11.05;100.00;99264.81;20984851;28;20409;-73
2022/11/15 17:02:07;;;;;;;10.32;5.85;;;;;;;11.02;100.00;99254.47;20982276;28;20044;-73
2022/11/15 17:12:08;;;;;;;8.93;4.72;;;;;;;10.93;100.00;99246.94;20932501;28;20056;-73
2022/11/15 17:22:09;;;;;;;14.45;5.93;;;;;;;10.85;100.00;99246.34;20943687;28;20087;-73
2022/11/15 17:32:10;;;;;;;9.93;5.50;;;;;;;10.86;100.00;99242.81;20893080;28;20642;-73
2022/11/15 17:42:12;;;;;;;11.48;5.68;;;;;;;10.91;100.00;99243.50;20910808;28;20078;-73
2022/11/15 17:52:13;;;;;;;17.33;11.00;;;;;;;10.93;100.00;99230.38;20890641;28;20110;-73
2022/11/15 18:02:15;;;;;;;9.50;5.68;;;;;;;10.86;100.00;99213.16;20891421;28;20394;-73
2022/11/15 18:12:18;;;;;;;12.98;6.95;;;;;;;10.74;100.00;99222.31;20914690;28;20082;-74
2022/11/15 18:22:20;;;;;;;44.05;24.75;;;;;;;10.82;100.00;99225.47;20969229;28;20052;-75
2022/11/15 18:32:22;;;;;;;29.88;16.20;;;;;;;10.82;100.00;99215.00;20901878;28;20045;-74
2022/11/15 18:42:24;;;;;;;15.95;8.65;;;;;;;10.77;100.00;99212.56;20931087;28;20055;-75
2022/11/15 18:52:25;;;;;;;21.00;13.80;;;;;;;10.73;100.00;99189.16;20972346;28;20079;-73
2022/11/15 19:02:26;;;;;;;20.77;12.27;;;;;;;10.68;100.00;99191.09;20965087;28;20063;-74
2022/11/15 19:12:32;;;;;;;16.08;9.75;;;;;;;10.64;100.00;99179.03;20952877;28;20052;-74
2022/11/15 19:22:33;;;;;;;22.35;11.65;;;;;;;10.67;100.00;99173.66;20984700;28;20078;-74
2022/11/15 19:32:35;;;;;;;25.35;13.60;;;;;;;10.62;100.00;99162.50;20921732;28;20497;-73
2022/11/15 19:42:36;;;;;;;18.75;10.43;;;;;;;10.59;100.00;99147.78;20950811;28;20135;-72
2022/11/15 19:52:37;;;;;;;27.80;16.65;;;;;;;10.56;100.00;99147.03;20899472;28;20057;-73
2022/11/15 20:02:39;;;;;;;34.72;19.10;;;;;;;10.52;100.00;99135.81;20899010;28;20053;-73
2022/11/15 20:12:40;;;;;;;33.13;20.95;;;;;;;10.43;100.00;99138.75;20904320;28;20048;-73
2022/11/15 20:22:42;;;;;;;38.75;25.00;;;;;;;10.43;100.00;99134.38;20950046;28;20219;-73
2022/11/15 20:32:43;;;;;;;39.42;26.60;;;;;;;10.39;100.00;99132.78;20978525;28;20052;-73
2022/11/15 20:42:45;;;;;;;34.78;24.45;;;;;;;10.40;100.00;99129.28;20978128;28;20056;-72
2022/11/15 20:52:47;;;;;;;26.70;19.00;;;;;;;10.37;100.00;99124.13;20976909;28;20419;-73
2022/11/15 21:02:48;;;;;;;28.90;16.73;;;;;;;10.38;100.00;99119.75;20975867;28;20110;-73
2022/11/15 21:12:49;;;;;;;29.08;19.73;;;;;;;10.31;100.00;99113.91;20946912;28;20060;-73
2022/11/15 21:22:51;;;;;;;21.38;13.32;;;;;;;10.28;100.00;99106.13;20949295;28;20056;-73
2022/11/15 21:32:52;;;;;;;19.88;11.98;;;;;;;10.31;100.00;99098.19;20973881;28;20056;-71
2022/11/15 21:42:54;;;;;;;25.40;15.38;;;;;;;10.26;100.00;99087.03;20976817;28;20620;-72
2022/11/15 21:52:55;;;;;;;24.30;14.85;;;;;;;10.23;100.00;99090.56;20975884;28;20354;-73
2022/11/15 22:02:57;;;;;;;22.77;14.60;;;;;;;10.21;100.00;99091.56;20956799;28;20072;-73
2022/11/15 22:12:58;;;;;;;21.55;13.40;;;;;;;10.18;100.00;99081.19;20921202;28;20106;-74
2022/11/15 22:23:16;;;;;;;18.30;12.07;;;;;;;10.17;100.00;99074.25;20918344;28;20053;-74
2022/11/15 22:33:21;;;;;;;17.08;10.48;;;;;;;10.19;100.00;99064.56;20890646;28;20060;-73
2022/11/15 22:43:34;;;;;;;15.30;10.32;;;;;;;10.20;100.00;99063.66;20893192;28;20053;-73
2022/11/15 22:53:37;;;;;;;21.65;12.93;;;;;;;10.20;100.00;99063.66;20906483;28;20048;-74
2022/11/15 23:04:02;;;;;;;19.35;12.65;;;;;;;10.22;100.00;99051.41;20994588;23;20416;-77
2022/11/15 23:14:04;;;;;;;19.08;12.90;;;;;;;10.21;100.00;99044.47;20996701;28;20144;-75
2022/11/15 23:34:50;;;;;;;16.27;10.75;;;;;;;10.24;100.00;99039.13;21016143;28;20428;-83
2022/11/15 23:44:51;;;;;;;15.52;9.82;;;;;;;10.23;100.00;99032.19;21000405;28;20122;-83
2022/11/15 23:54:52;;;;;;;17.98;10.73;;;;;;;10.22;100.00;99049.63;20996741;28;20060;-82
